Historyczne dane pomiarowe

Dodano dane terminowe – wersja testowa.

Dane z okresu 1951-2019

Wersja bazy: 1.34 [2019-03-16, lista zmian], aktualizacja planowana na 2019-04-15

Dane meteo z obszaru Polski uzyskane na podstawie danych udostępnionych przez Instytut Meteorologii i Gospodarki Wodnej – Państwowy Instytut Badawczy.

 

Wybierz Datę:    

       

TemperaturaWilgotnośćWiatrCiśnienieOpadyŚniegCzas trwania zjawisk
 Stacja t tx tn tng RH VA  wxwx mslp ppp RRR   cm mm wxwxwxwxwxwxwx
1999-08-14 12.0 19.1 5.9 3.2 77.5- 3.7 0.0---- 0.0------------
1999-08-13 14.3 19.2 11.1 7.8 73.8- 7.7 0.3---- 0.0------------
1999-08-12 15.6 18.1 14.0 11.3 74.3- 8.0 0.3---- 0.0------------
1999-08-11 17.8 24.0 14.5 10.4 72.5- 5.3 0.0---- 7.3------------
1999-08-10 21.6 29.0 16.5 14.0 70.8- 6.3 1.0---- 8.7------------
1999-08-09 19.9 29.1 14.6 10.7 74.5- 6.0 0.0---- 10.2------------
1999-08-08 20.8 25.4 17.0 14.0 68.5- 5.0 0.3---- 0.0------------
1999-08-07 19.4 26.4 14.0 11.9 72.0- 5.7 0.0---- 1.0------------
1999-08-06 18.4 25.5 13.5 9.6 73.0- 7.0 0.3---- 16.7------------
1999-08-05 16.4 25.2 10.1 5.2 70.8- 5.3 0.3---- 0.0------------
1999-08-04 14.9 22.0 9.2 5.2 70.5- 4.7 0.0---- 0.0------------
1999-08-03 15.5 19.3 12.1 8.5 73.5- 7.3 0.0---- 0.0------------
1999-08-02 14.1 19.1 10.6 6.0 73.3- 8.0 0.0---- 1.0------------
1999-08-01 16.0 21.4 13.2 10.9 76.5- 6.7 0.7---- 1.1------------
1999-07-31 14.6 21.2 9.3 7.2 72.5- 6.0 0.0---- 1.1------------
1999-07-30 13.7 21.2 7.6 4.2 67.5- 3.7 0.3---- 0.0------------
1999-07-29 16.0 21.4 11.6 8.0 69.5- 3.3 0.0---- 0.0------------
1999-07-28 18.0 21.1 16.1 11.9 71.8- 5.7 0.0---- 0.0------------
1999-07-27 19.1 23.3 16.6 12.1 77.0- 8.0 0.3---- 0.1------------
1999-07-26 19.5 26.4 13.5 9.3 66.0- 5.7 0.7---- 0.0------------
1999-07-25 16.7 23.2 11.4 8.9 75.0- 5.3 0.3---- 0.0------------
1999-07-24 15.6 19.2 12.0 9.9 76.5- 8.0 0.3---- 0.0------------
1999-07-23 15.0 17.9 13.4 11.3 87.3- 8.0 0.7---- 20.2------------
1999-07-22 15.4 24.0 8.7 8.6 79.5- 6.3 0.3---- 24.4------------
1999-07-21 19.5 28.0 12.6 8.9 66.8- 4.0 0.0---- 0.0------------
1999-07-20 18.4 28.2 10.9 7.2 68.3- 2.0 0.3---- 0.0------------
1999-07-19 16.4 26.0 8.9 5.0 72.8- 3.0 0.0---- 0.0------------
1999-07-18 14.8 23.1 8.1 5.2 84.3- 4.3 0.0---- 0.0------------
1999-07-17 14.0 20.4 9.3 6.2 79.8- 6.0 0.0---- 0.0------------
1999-07-16 14.7 20.2 9.6 6.1 73.8- 4.0 0.3---- 0.2------------
1999-07-15 17.2 21.0 14.5 12.8 75.8- 5.7 0.3---- 0.0------------
1999-07-14 19.0 22.2 16.5 13.4 84.5- 7.7 0.3---- 7.4------------
1999-07-13 19.4 23.6 16.2 13.1 71.5- 6.0 0.7---- 5.8------------
1999-07-12 18.3 23.2 15.0 12.4 80.8- 7.7 0.0---- 1.7------------
1999-07-11 18.3 21.0 16.4 13.3 81.3- 8.0 0.3---- 22.0------------
1999-07-10 18.9 21.7 17.6 15.9 67.5- 8.0 0.7---- 0.6------------
1999-07-09 19.5 23.3 16.0 14.3 73.5- 8.0 0.7---- 0.0------------
1999-07-08 20.0 24.0 16.5 14.0 73.8- 8.0 0.7---- 29.4------------
1999-07-07 21.0 28.0 17.0 13.4 73.0- 6.0 0.0---- 43.4------------
1999-07-06 22.6 29.7 14.8 10.8 62.5- 0.7 1.3---- 0.0------------
1999-07-05 20.8 29.7 13.5 8.4 60.5- 0.3 0.3---- 0.0------------
1999-07-04 20.1 29.6 11.7 8.6 62.3- 2.3 0.0---- 0.0------------
1999-07-03 17.9 24.2 12.6 9.4 64.3- 4.7 0.3---- 0.0------------
1999-07-02 17.9 22.4 14.2 11.4 67.5- 5.7 0.3---- 0.0------------
1999-07-01 17.1 24.2 11.4 8.9 65.8- 5.0 0.0---- 0.0------------
1999-06-30 18.3 22.3 13.4 9.7 62.8- 3.0 0.7---- 0.0------------
1999-06-29 18.1 24.0 12.6 9.3 70.5- 4.7 0.3---- 0.0------------
1999-06-28 16.0 26.7 8.7 5.2 67.5- 4.0 0.0---- 2.2------------
1999-06-27 16.2 25.6 7.5 6.0 65.3- 0.0 0.3---- 0.0------------
1999-06-26 14.0 23.4 5.6 2.8 65.3- 4.0 0.3---- 0.0------------
1999-06-25 12.8 18.4 7.6 6.6 71.5- 2.3 1.0---- 0.0------------
1999-06-24 9.4 10.6 8.3 7.2 89.5- 8.0 0.3---- 1.8------------
1999-06-23 9.0 10.3 7.9 6.8 92.5- 8.0 2.0---- 8.8------------
1999-06-22 12.1 16.3 9.1 6.2 92.3- 8.0 1.0---- 18.4------------
1999-06-21 18.3 24.4 16.0 13.7 77.0- 7.7 0.0---- 20.8------------
1999-06-20 17.8 24.0 13.2 10.0 75.5- 6.7 0.0---- 1.3------------
1999-06-19 17.5 21.4 14.9 12.8 70.0- 7.7 0.3---- 0.0------------
1999-06-18 17.7 21.2 14.9 13.4 77.3- 8.0 0.0---- 1.1------------
1999-06-17 17.8 21.3 15.5 13.8 80.3- 7.3 0.7---- 4.0------------
1999-06-16 17.5 19.8 15.8 13.4 80.0- 7.7 0.3---- 3.5------------
272.6 ms

 

Źródłem pochodzenia danych jest Instytut Meteorologii i Gospodarki Wodnej – Państwowy Instytut Badawczy. Dane Instytutu Meteorologii i Gospodarki Wodnej – Państwowego Instytutu Badawczego zostały przetworzone.

Dane źródłowe można odnaleźć na stronie https://dane.imgw.pl